sensor_id;sensor_type;location;lat;lon;timestamp;pressure;altitude;pressure_sealevel;temperature;humidity
71165;BME280;58859;55.132;-1.586;2023-11-19T00:01:45;99269.53;;;15.19;100.00
71165;BME280;58859;55.132;-1.586;2023-11-19T00:04:12;99272.88;;;15.33;100.00
71165;BME280;58859;55.132;-1.586;2023-11-19T00:06:38;99275.22;;;15.72;100.00
71165;BME280;58859;55.132;-1.586;2023-11-19T00:09:04;99272.28;;;15.62;100.00
71165;BME280;58859;55.132;-1.586;2023-11-19T00:11:30;99277.81;;;15.16;100.00
71165;BME280;58859;55.132;-1.586;2023-11-19T00:13:55;99281.63;;;15.51;100.00
71165;BME280;58859;55.132;-1.586;2023-11-19T00:16:20;99294.66;;;16.07;100.00
71165;BME280;58859;55.132;-1.586;2023-11-19T00:18:46;99287.63;;;15.27;100.00
71165;BME280;58859;55.132;-1.586;2023-11-19T00:21:11;99260.72;;;15.38;100.00
71165;BME280;58859;55.132;-1.586;2023-11-19T00:23:37;99280.47;;;15.90;100.00
71165;BME280;58859;55.132;-1.586;2023-11-19T00:26:03;99283.56;;;15.63;100.00
71165;BME280;58859;55.132;-1.586;2023-11-19T00:28:31;99276.00;;;15.73;100.00
71165;BME280;58859;55.132;-1.586;2023-11-19T00:30:57;99263.56;;;15.12;100.00
71165;BME280;58859;55.132;-1.586;2023-11-19T00:33:22;99263.59;;;15.62;100.00
71165;BME280;58859;55.132;-1.586;2023-11-19T00:35:47;99253.63;;;15.52;100.00
71165;BME280;58859;55.132;-1.586;2023-11-19T00:38:13;99257.63;;;15.23;100.00
71165;BME280;58859;55.132;-1.586;2023-11-19T00:40:39;99244.78;;;15.71;100.00
71165;BME280;58859;55.132;-1.586;2023-11-19T00:43:06;99243.75;;;15.47;100.00
71165;BME280;58859;55.132;-1.586;2023-11-19T00:45:32;99245.25;;;15.62;100.00
71165;BME280;58859;55.132;-1.586;2023-11-19T00:47:58;99245.44;;;15.85;100.00
71165;BME280;58859;55.132;-1.586;2023-11-19T00:50:25;99244.59;;;15.91;100.00
71165;BME280;58859;55.132;-1.586;2023-11-19T00:52:50;99248.41;;;15.70;100.00
71165;BME280;58859;55.132;-1.586;2023-11-19T00:55:16;99252.81;;;15.45;100.00
71165;BME280;58859;55.132;-1.586;2023-11-19T00:57:42;99244.00;;;16.07;100.00
71165;BME280;58859;55.132;-1.586;2023-11-19T01:00:08;99250.63;;;16.09;100.00
71165;BME280;58859;55.132;-1.586;2023-11-19T01:02:40;99254.44;;;16.32;100.00
71165;BME280;58859;55.132;-1.586;2023-11-19T01:05:07;99245.09;;;15.32;100.00
71165;BME280;58859;55.132;-1.586;2023-11-19T01:07:33;99253.78;;;16.36;100.00
71165;BME280;58859;55.132;-1.586;2023-11-19T01:09:58;99250.06;;;16.26;100.00
71165;BME280;58859;55.132;-1.586;2023-11-19T01:12:24;99246.13;;;16.17;100.00
71165;BME280;58859;55.132;-1.586;2023-11-19T01:14:49;99247.16;;;15.97;100.00
71165;BME280;58859;55.132;-1.586;2023-11-19T01:17:15;99239.44;;;15.60;100.00
71165;BME280;58859;55.132;-1.586;2023-11-19T01:19:41;99227.31;;;16.01;100.00
71165;BME280;58859;55.132;-1.586;2023-11-19T01:22:06;99234.09;;;16.45;100.00
71165;BME280;58859;55.132;-1.586;2023-11-19T01:24:32;99226.59;;;15.94;100.00
71165;BME280;58859;55.132;-1.586;2023-11-19T01:26:57;99225.41;;;15.90;100.00
71165;BME280;58859;55.132;-1.586;2023-11-19T01:29:25;99225.41;;;16.45;100.00
71165;BME280;58859;55.132;-1.586;2023-11-19T01:31:50;99213.75;;;16.41;100.00
71165;BME280;58859;55.132;-1.586;2023-11-19T01:34:18;99208.75;;;15.85;100.00
71165;BME280;58859;55.132;-1.586;2023-11-19T01:36:43;99210.91;;;16.42;100.00
71165;BME280;58859;55.132;-1.586;2023-11-19T01:39:09;99210.28;;;16.10;100.00
71165;BME280;58859;55.132;-1.586;2023-11-19T01:41:35;99205.81;;;16.29;100.00
71165;BME280;58859;55.132;-1.586;2023-11-19T01:44:09;99212.13;;;15.49;100.00
71165;BME280;58859;55.132;-1.586;2023-11-19T01:46:37;99226.66;;;15.38;100.00
71165;BME280;58859;55.132;-1.586;2023-11-19T01:49:03;99224.78;;;15.52;100.00
71165;BME280;58859;55.132;-1.586;2023-11-19T01:51:30;99229.63;;;16.64;100.00
71165;BME280;58859;55.132;-1.586;2023-11-19T01:53:57;99237.44;;;15.98;100.00
71165;BME280;58859;55.132;-1.586;2023-11-19T01:56:23;99232.72;;;16.25;100.00
71165;BME280;58859;55.132;-1.586;2023-11-19T01:58:50;99229.50;;;15.12;100.00
71165;BME280;58859;55.132;-1.586;2023-11-19T02:01:15;99233.56;;;15.82;100.00
71165;BME280;58859;55.132;-1.586;2023-11-19T02:03:41;99217.47;;;15.61;100.00
71165;BME280;58859;55.132;-1.586;2023-11-19T02:06:07;99236.56;;;15.36;100.00
71165;BME280;58859;55.132;-1.586;2023-11-19T02:08:35;99226.00;;;15.74;100.00
71165;BME280;58859;55.132;-1.586;2023-11-19T02:11:00;99212.47;;;15.52;100.00
71165;BME280;58859;55.132;-1.586;2023-11-19T02:13:27;99233.00;;;15.80;100.00
71165;BME280;58859;55.132;-1.586;2023-11-19T02:15:54;99232.25;;;15.73;100.00
71165;BME280;58859;55.132;-1.586;2023-11-19T02:20:50;99228.84;;;16.27;100.00
71165;BME280;58859;55.132;-1.586;2023-11-19T02:23:16;99239.28;;;16.82;100.00
71165;BME280;58859;55.132;-1.586;2023-11-19T02:25:43;99237.19;;;15.81;100.00
71165;BME280;58859;55.132;-1.586;2023-11-19T02:28:12;99235.56;;;16.23;100.00
71165;BME280;58859;55.132;-1.586;2023-11-19T02:30:38;99236.72;;;16.27;100.00
71165;BME280;58859;55.132;-1.586;2023-11-19T02:33:03;99224.31;;;15.80;100.00
71165;BME280;58859;55.132;-1.586;2023-11-19T02:35:31;99221.47;;;16.36;100.00
71165;BME280;58859;55.132;-1.586;2023-11-19T02:37:57;99214.00;;;16.03;100.00
71165;BME280;58859;55.132;-1.586;2023-11-19T02:40:24;99226.16;;;15.97;100.00
71165;BME280;58859;55.132;-1.586;2023-11-19T02:42:50;99221.72;;;16.16;100.00
71165;BME280;58859;55.132;-1.586;2023-11-19T02:45:16;99216.53;;;16.46;100.00
71165;BME280;58859;55.132;-1.586;2023-11-19T02:47:43;99222.84;;;15.84;100.00
71165;BME280;58859;55.132;-1.586;2023-11-19T02:50:11;99220.34;;;16.14;100.00
71165;BME280;58859;55.132;-1.586;2023-11-19T02:52:43;99213.38;;;15.65;100.00
71165;BME280;58859;55.132;-1.586;2023-11-19T02:55:09;99222.16;;;16.31;100.00
71165;BME280;58859;55.132;-1.586;2023-11-19T02:57:37;99209.28;;;15.44;100.00
71165;BME280;58859;55.132;-1.586;2023-11-19T03:00:03;99214.13;;;15.47;100.00
71165;BME280;58859;55.132;-1.586;2023-11-19T03:02:39;99204.75;;;15.33;100.00
71165;BME280;58859;55.132;-1.586;2023-11-19T03:05:10;99210.47;;;15.73;100.00
71165;BME280;58859;55.132;-1.586;2023-11-19T03:07:36;99203.41;;;15.55;100.00
71165;BME280;58859;55.132;-1.586;2023-11-19T03:10:01;99200.78;;;15.73;100.00
71165;BME280;58859;55.132;-1.586;2023-11-19T03:12:27;99193.88;;;15.61;100.00
71165;BME280;58859;55.132;-1.586;2023-11-19T03:14:52;99202.25;;;15.69;100.00
71165;BME280;58859;55.132;-1.586;2023-11-19T03:17:17;99198.22;;;15.42;100.00
71165;BME280;58859;55.132;-1.586;2023-11-19T03:19:44;99206.41;;;15.27;100.00
71165;BME280;58859;55.132;-1.586;2023-11-19T03:22:09;99207.16;;;15.34;100.00
71165;BME280;58859;55.132;-1.586;2023-11-19T03:24:36;99201.72;;;15.11;100.00
71165;BME280;58859;55.132;-1.586;2023-11-19T03:27:01;99199.03;;;15.49;100.00
71165;BME280;58859;55.132;-1.586;2023-11-19T03:29:26;99192.13;;;15.73;100.00
71165;BME280;58859;55.132;-1.586;2023-11-19T03:31:53;99194.88;;;15.60;100.00
71165;BME280;58859;55.132;-1.586;2023-11-19T03:34:19;99197.59;;;15.71;100.00
71165;BME280;58859;55.132;-1.586;2023-11-19T03:36:44;99189.13;;;15.51;100.00
71165;BME280;58859;55.132;-1.586;2023-11-19T03:39:10;99179.59;;;15.57;100.00
71165;BME280;58859;55.132;-1.586;2023-11-19T03:41:36;99192.13;;;15.91;100.00
71165;BME280;58859;55.132;-1.586;2023-11-19T03:44:01;99191.06;;;15.80;100.00
71165;BME280;58859;55.132;-1.586;2023-11-19T03:46:27;99188.88;;;15.77;100.00
71165;BME280;58859;55.132;-1.586;2023-11-19T03:48:52;99191.72;;;15.94;100.00
71165;BME280;58859;55.132;-1.586;2023-11-19T03:51:18;99195.84;;;16.20;100.00
71165;BME280;58859;55.132;-1.586;2023-11-19T03:53:46;99192.97;;;15.67;100.00
71165;BME280;58859;55.132;-1.586;2023-11-19T03:56:12;99195.50;;;15.30;100.00
71165;BME280;58859;55.132;-1.586;2023-11-19T03:58:38;99193.34;;;15.52;100.00
71165;BME280;58859;55.132;-1.586;2023-11-19T04:01:11;99201.97;;;15.28;100.00
71165;BME280;58859;55.132;-1.586;2023-11-19T04:03:36;99200.03;;;15.41;100.00
71165;BME280;58859;55.132;-1.586;2023-11-19T04:06:02;99192.25;;;15.35;100.00
71165;BME280;58859;55.132;-1.586;2023-11-19T04:08:27;99207.38;;;15.33;100.00
71165;BME280;58859;55.132;-1.586;2023-11-19T04:10:53;99207.41;;;15.02;100.00
71165;BME280;58859;55.132;-1.586;2023-11-19T04:13:18;99208.59;;;15.80;100.00
71165;BME280;58859;55.132;-1.586;2023-11-19T04:15:45;99204.00;;;15.75;100.00
71165;BME280;58859;55.132;-1.586;2023-11-19T04:18:10;99207.06;;;15.23;100.00
71165;BME280;58859;55.132;-1.586;2023-11-19T04:20:35;99207.47;;;15.44;100.00
71165;BME280;58859;55.132;-1.586;2023-11-19T04:23:01;99210.66;;;15.53;100.00
71165;BME280;58859;55.132;-1.586;2023-11-19T04:25:27;99202.50;;;15.61;100.00
71165;BME280;58859;55.132;-1.586;2023-11-19T04:27:52;99212.88;;;15.92;100.00
71165;BME280;58859;55.132;-1.586;2023-11-19T04:30:18;99215.66;;;15.79;100.00
71165;BME280;58859;55.132;-1.586;2023-11-19T04:32:44;99213.09;;;15.23;100.00
71165;BME280;58859;55.132;-1.586;2023-11-19T04:35:09;99210.06;;;15.26;100.00
71165;BME280;58859;55.132;-1.586;2023-11-19T04:37:35;99209.06;;;15.52;100.00
71165;BME280;58859;55.132;-1.586;2023-11-19T04:40:00;99204.88;;;15.87;100.00
71165;BME280;58859;55.132;-1.586;2023-11-19T04:42:26;99196.72;;;15.77;100.00
71165;BME280;58859;55.132;-1.586;2023-11-19T04:44:51;99199.19;;;16.27;100.00
71165;BME280;58859;55.132;-1.586;2023-11-19T04:47:16;99196.84;;;15.39;100.00
71165;BME280;58859;55.132;-1.586;2023-11-19T04:49:42;99203.84;;;15.70;100.00
71165;BME280;58859;55.132;-1.586;2023-11-19T04:52:10;99209.31;;;15.69;100.00
71165;BME280;58859;55.132;-1.586;2023-11-19T04:54:43;99214.47;;;15.57;100.00
71165;BME280;58859;55.132;-1.586;2023-11-19T04:57:09;99216.09;;;15.27;100.00
71165;BME280;58859;55.132;-1.586;2023-11-19T04:59:36;99222.72;;;16.15;100.00
71165;BME280;58859;55.132;-1.586;2023-11-19T05:02:02;99223.06;;;15.64;100.00
71165;BME280;58859;55.132;-1.586;2023-11-19T05:04:27;99219.59;;;15.88;100.00
71165;BME280;58859;55.132;-1.586;2023-11-19T05:06:52;99235.28;;;15.70;100.00
71165;BME280;58859;55.132;-1.586;2023-11-19T05:09:18;99226.91;;;15.62;100.00
71165;BME280;58859;55.132;-1.586;2023-11-19T05:11:44;99223.81;;;15.71;100.00
71165;BME280;58859;55.132;-1.586;2023-11-19T05:14:09;99231.94;;;15.63;100.00
71165;BME280;58859;55.132;-1.586;2023-11-19T05:16:34;99230.13;;;15.64;100.00
71165;BME280;58859;55.132;-1.586;2023-11-19T05:19:00;99244.75;;;16.14;100.00
71165;BME280;58859;55.132;-1.586;2023-11-19T05:21:25;99238.69;;;15.52;100.00
71165;BME280;58859;55.132;-1.586;2023-11-19T05:23:51;99241.94;;;15.48;100.00
71165;BME280;58859;55.132;-1.586;2023-11-19T05:26:21;99231.94;;;15.63;100.00
71165;BME280;58859;55.132;-1.586;2023-11-19T05:28:47;99234.53;;;15.88;100.00
71165;BME280;58859;55.132;-1.586;2023-11-19T05:31:13;99240.44;;;16.01;100.00
71165;BME280;58859;55.132;-1.586;2023-11-19T05:33:38;99235.91;;;15.72;100.00
71165;BME280;58859;55.132;-1.586;2023-11-19T05:36:05;99228.63;;;16.10;100.00
71165;BME280;58859;55.132;-1.586;2023-11-19T05:38:30;99236.38;;;16.05;100.00
71165;BME280;58859;55.132;-1.586;2023-11-19T05:40:55;99233.34;;;15.66;100.00
71165;BME280;58859;55.132;-1.586;2023-11-19T05:43:22;99224.47;;;15.35;100.00
71165;BME280;58859;55.132;-1.586;2023-11-19T05:45:47;99223.41;;;15.49;100.00
71165;BME280;58859;55.132;-1.586;2023-11-19T05:48:12;99221.44;;;15.14;100.00
71165;BME280;58859;55.132;-1.586;2023-11-19T05:50:39;99203.66;;;15.47;100.00
71165;BME280;58859;55.132;-1.586;2023-11-19T05:53:04;99208.38;;;15.99;100.00
71165;BME280;58859;55.132;-1.586;2023-11-19T05:55:36;99207.84;;;15.55;100.00
71165;BME280;58859;55.132;-1.586;2023-11-19T05:58:10;99208.56;;;15.62;100.00
71165;BME280;58859;55.132;-1.586;2023-11-19T06:00:37;99207.94;;;15.10;100.00
71165;BME280;58859;55.132;-1.586;2023-11-19T06:03:03;99199.81;;;15.49;100.00
71165;BME280;58859;55.132;-1.586;2023-11-19T06:05:29;99204.47;;;15.47;100.00
71165;BME280;58859;55.132;-1.586;2023-11-19T06:07:54;99213.94;;;15.42;100.00
71165;BME280;58859;55.132;-1.586;2023-11-19T06:10:20;99217.16;;;15.44;100.00
71165;BME280;58859;55.132;-1.586;2023-11-19T06:12:46;99219.47;;;15.59;100.00
71165;BME280;58859;55.132;-1.586;2023-11-19T06:15:11;99221.75;;;15.55;100.00
71165;BME280;58859;55.132;-1.586;2023-11-19T06:17:36;99234.19;;;16.02;100.00
71165;BME280;58859;55.132;-1.586;2023-11-19T06:20:04;99237.81;;;15.34;100.00
71165;BME280;58859;55.132;-1.586;2023-11-19T06:22:30;99231.22;;;15.25;100.00
71165;BME280;58859;55.132;-1.586;2023-11-19T06:24:56;99244.13;;;15.76;100.00
71165;BME280;58859;55.132;-1.586;2023-11-19T06:27:21;99237.09;;;16.31;100.00
71165;BME280;58859;55.132;-1.586;2023-11-19T06:29:47;99243.66;;;16.22;100.00
71165;BME280;58859;55.132;-1.586;2023-11-19T06:32:13;99241.38;;;15.39;100.00
71165;BME280;58859;55.132;-1.586;2023-11-19T06:34:38;99245.09;;;15.99;100.00
71165;BME280;58859;55.132;-1.586;2023-11-19T06:37:04;99238.19;;;16.23;100.00
71165;BME280;58859;55.132;-1.586;2023-11-19T06:39:29;99239.56;;;16.26;100.00
71165;BME280;58859;55.132;-1.586;2023-11-19T06:41:55;99239.00;;;16.05;100.00
71165;BME280;58859;55.132;-1.586;2023-11-19T06:44:20;99236.72;;;16.45;100.00
71165;BME280;58859;55.132;-1.586;2023-11-19T06:46:45;99237.78;;;16.74;100.00
71165;BME280;58859;55.132;-1.586;2023-11-19T06:49:11;99230.44;;;16.10;100.00
71165;BME280;58859;55.132;-1.586;2023-11-19T06:51:41;99236.06;;;15.77;100.00
71165;BME280;58859;55.132;-1.586;2023-11-19T06:54:07;99239.63;;;15.58;100.00
71165;BME280;58859;55.132;-1.586;2023-11-19T06:56:32;99242.25;;;16.19;100.00
71165;BME280;58859;55.132;-1.586;2023-11-19T06:58:57;99243.63;;;15.85;100.00
71165;BME280;58859;55.132;-1.586;2023-11-19T07:01:23;99243.19;;;16.06;100.00
71165;BME280;58859;55.132;-1.586;2023-11-19T07:03:48;99252.16;;;16.35;100.00
71165;BME280;58859;55.132;-1.586;2023-11-19T07:06:14;99254.50;;;16.25;100.00
71165;BME280;58859;55.132;-1.586;2023-11-19T07:08:42;99257.84;;;16.32;100.00
71165;BME280;58859;55.132;-1.586;2023-11-19T07:11:12;99247.06;;;16.40;100.00
71165;BME280;58859;55.132;-1.586;2023-11-19T07:13:39;99260.53;;;16.44;100.00
71165;BME280;58859;55.132;-1.586;2023-11-19T07:16:05;99258.50;;;15.67;100.00
71165;BME280;58859;55.132;-1.586;2023-11-19T07:18:30;99268.88;;;16.59;100.00
71165;BME280;58859;55.132;-1.586;2023-11-19T07:20:57;99276.16;;;16.39;100.00
71165;BME280;58859;55.132;-1.586;2023-11-19T07:23:22;99275.44;;;16.32;100.00
71165;BME280;58859;55.132;-1.586;2023-11-19T07:25:48;99277.25;;;16.13;100.00
71165;BME280;58859;55.132;-1.586;2023-11-19T07:28:15;99277.72;;;15.85;100.00
71165;BME280;58859;55.132;-1.586;2023-11-19T07:30:41;99279.34;;;15.86;100.00
71165;BME280;58859;55.132;-1.586;2023-11-19T07:33:07;99285.03;;;16.20;100.00
71165;BME280;58859;55.132;-1.586;2023-11-19T07:35:33;99286.06;;;15.76;100.00
71165;BME280;58859;55.132;-1.586;2023-11-19T07:37:59;99288.22;;;15.61;100.00
71165;BME280;58859;55.132;-1.586;2023-11-19T07:40:24;99282.00;;;16.23;100.00
71165;BME280;58859;55.132;-1.586;2023-11-19T07:42:50;99291.38;;;15.07;100.00
71165;BME280;58859;55.132;-1.586;2023-11-19T07:45:16;99284.78;;;15.60;100.00
71165;BME280;58859;55.132;-1.586;2023-11-19T07:47:42;99280.66;;;15.15;100.00
71165;BME280;58859;55.132;-1.586;2023-11-19T07:50:10;99286.34;;;15.36;100.00
71165;BME280;58859;55.132;-1.586;2023-11-19T07:52:35;99283.50;;;16.12;100.00
71165;BME280;58859;55.132;-1.586;2023-11-19T07:55:01;99284.28;;;15.70;100.00
71165;BME280;58859;55.132;-1.586;2023-11-19T07:57:28;99278.44;;;15.49;100.00
71165;BME280;58859;55.132;-1.586;2023-11-19T07:59:56;99287.19;;;14.61;100.00
71165;BME280;58859;55.132;-1.586;2023-11-19T08:02:21;99300.53;;;14.40;100.00
71165;BME280;58859;55.132;-1.586;2023-11-19T08:04:48;99296.78;;;14.67;100.00
71165;BME280;58859;55.132;-1.586;2023-11-19T08:07:17;99290.28;;;14.89;100.00
71165;BME280;58859;55.132;-1.586;2023-11-19T08:09:43;99295.72;;;14.81;100.00
71165;BME280;58859;55.132;-1.586;2023-11-19T08:12:08;99292.47;;;14.92;100.00
71165;BME280;58859;55.132;-1.586;2023-11-19T08:14:35;99285.50;;;15.49;100.00
71165;BME280;58859;55.132;-1.586;2023-11-19T08:17:00;99291.63;;;14.98;100.00
71165;BME280;58859;55.132;-1.586;2023-11-19T08:19:26;99282.63;;;16.00;100.00
71165;BME280;58859;55.132;-1.586;2023-11-19T08:21:51;99279.84;;;15.14;100.00
71165;BME280;58859;55.132;-1.586;2023-11-19T08:24:17;99292.56;;;15.42;100.00
71165;BME280;58859;55.132;-1.586;2023-11-19T08:26:42;99286.06;;;15.20;100.00
71165;BME280;58859;55.132;-1.586;2023-11-19T08:29:08;99274.31;;;15.29;100.00
71165;BME280;58859;55.132;-1.586;2023-11-19T08:31:34;99284.00;;;14.90;100.00
71165;BME280;58859;55.132;-1.586;2023-11-19T08:34:00;99283.13;;;15.10;100.00
71165;BME280;58859;55.132;-1.586;2023-11-19T08:36:26;99267.63;;;15.02;100.00
71165;BME280;58859;55.132;-1.586;2023-11-19T08:38:53;99280.50;;;14.65;100.00
71165;BME280;58859;55.132;-1.586;2023-11-19T08:41:18;99289.53;;;15.14;100.00
71165;BME280;58859;55.132;-1.586;2023-11-19T08:43:44;99275.69;;;14.62;100.00
71165;BME280;58859;55.132;-1.586;2023-11-19T08:46:11;99294.06;;;14.56;100.00
71165;BME280;58859;55.132;-1.586;2023-11-19T08:48:36;99288.44;;;15.21;100.00
71165;BME280;58859;55.132;-1.586;2023-11-19T08:51:02;99294.00;;;15.69;100.00
71165;BME280;58859;55.132;-1.586;2023-11-19T08:53:27;99288.84;;;15.56;100.00
71165;BME280;58859;55.132;-1.586;2023-11-19T08:55:52;99301.03;;;15.93;100.00
71165;BME280;58859;55.132;-1.586;2023-11-19T08:58:18;99305.88;;;15.09;100.00
71165;BME280;58859;55.132;-1.586;2023-11-19T09:00:43;99300.25;;;15.06;100.00
71165;BME280;58859;55.132;-1.586;2023-11-19T09:03:09;99305.59;;;15.24;100.00
71165;BME280;58859;55.132;-1.586;2023-11-19T09:05:34;99305.88;;;15.09;100.00
71165;BME280;58859;55.132;-1.586;2023-11-19T09:08:00;99306.06;;;14.70;100.00
71165;BME280;58859;55.132;-1.586;2023-11-19T09:10:25;99307.84;;;14.76;100.00
71165;BME280;58859;55.132;-1.586;2023-11-19T09:12:52;99308.19;;;14.28;100.00
71165;BME280;58859;55.132;-1.586;2023-11-19T09:15:18;99314.44;;;14.21;100.00
71165;BME280;58859;55.132;-1.586;2023-11-19T09:17:43;99324.88;;;14.34;100.00
71165;BME280;58859;55.132;-1.586;2023-11-19T09:20:09;99307.59;;;14.26;100.00
71165;BME280;58859;55.132;-1.586;2023-11-19T09:22:37;99309.81;;;14.23;100.00
71165;BME280;58859;55.132;-1.586;2023-11-19T09:25:03;99307.78;;;14.25;100.00
71165;BME280;58859;55.132;-1.586;2023-11-19T09:27:30;99306.59;;;14.27;100.00
71165;BME280;58859;55.132;-1.586;2023-11-19T09:29:55;99312.72;;;14.72;100.00
71165;BME280;58859;55.132;-1.586;2023-11-19T09:32:23;99315.97;;;15.06;100.00
71165;BME280;58859;55.132;-1.586;2023-11-19T09:34:49;99298.81;;;15.41;100.00
71165;BME280;58859;55.132;-1.586;2023-11-19T09:37:14;99313.94;;;15.39;100.00
71165;BME280;58859;55.132;-1.586;2023-11-19T09:39:39;99321.31;;;15.24;100.00
71165;BME280;58859;55.132;-1.586;2023-11-19T09:42:08;99307.94;;;15.01;100.00
71165;BME280;58859;55.132;-1.586;2023-11-19T09:44:34;99319.03;;;14.96;100.00
71165;BME280;58859;55.132;-1.586;2023-11-19T09:47:00;99313.91;;;15.14;100.00
71165;BME280;58859;55.132;-1.586;2023-11-19T09:49:26;99318.72;;;15.17;100.00
71165;BME280;58859;55.132;-1.586;2023-11-19T09:51:52;99320.28;;;15.25;100.00
71165;BME280;58859;55.132;-1.586;2023-11-19T09:54:18;99330.13;;;14.91;100.00
71165;BME280;58859;55.132;-1.586;2023-11-19T09:56:43;99328.81;;;15.07;100.00
71165;BME280;58859;55.132;-1.586;2023-11-19T09:59:09;99335.94;;;14.93;100.00
71165;BME280;58859;55.132;-1.586;2023-11-19T10:01:38;99331.53;;;14.94;100.00
71165;BME280;58859;55.132;-1.586;2023-11-19T10:04:04;99331.31;;;15.65;100.00
71165;BME280;58859;55.132;-1.586;2023-11-19T10:06:32;99331.75;;;15.62;100.00
71165;BME280;58859;55.132;-1.586;2023-11-19T10:08:58;99330.44;;;15.08;100.00
71165;BME280;58859;55.132;-1.586;2023-11-19T10:11:24;99329.94;;;16.30;100.00
71165;BME280;58859;55.132;-1.586;2023-11-19T10:13:51;99332.16;;;16.08;100.00
71165;BME280;58859;55.132;-1.586;2023-11-19T10:16:17;99327.31;;;16.12;100.00
71165;BME280;58859;55.132;-1.586;2023-11-19T10:18:46;99326.94;;;16.26;100.00
71165;BME280;58859;55.132;-1.586;2023-11-19T10:21:13;99330.59;;;16.25;100.00
71165;BME280;58859;55.132;-1.586;2023-11-19T10:23:52;99319.41;;;16.54;100.00
71165;BME280;58859;55.132;-1.586;2023-11-19T10:26:19;99330.69;;;16.12;100.00
71165;BME280;58859;55.132;-1.586;2023-11-19T10:28:46;99342.16;;;16.79;100.00
71165;BME280;58859;55.132;-1.586;2023-11-19T10:31:18;99333.72;;;16.52;100.00
71165;BME280;58859;55.132;-1.586;2023-11-19T10:33:44;99322.81;;;16.73;100.00
71165;BME280;58859;55.132;-1.586;2023-11-19T10:36:11;99334.41;;;16.84;100.00
71165;BME280;58859;55.132;-1.586;2023-11-19T10:38:37;99340.75;;;16.58;100.00
71165;BME280;58859;55.132;-1.586;2023-11-19T10:41:03;99342.41;;;17.48;100.00
71165;BME280;58859;55.132;-1.586;2023-11-19T10:43:30;99340.06;;;16.99;100.00
71165;BME280;58859;55.132;-1.586;2023-11-19T10:46:09;99340.53;;;17.37;100.00
71165;BME280;58859;55.132;-1.586;2023-11-19T10:48:35;99339.06;;;17.59;100.00
71165;BME280;58859;55.132;-1.586;2023-11-19T10:51:05;99344.09;;;17.72;100.00
71165;BME280;58859;55.132;-1.586;2023-11-19T10:53:35;99336.59;;;16.87;100.00
71165;BME280;58859;55.132;-1.586;2023-11-19T10:56:02;99340.69;;;17.12;100.00
71165;BME280;58859;55.132;-1.586;2023-11-19T10:58:32;99346.44;;;16.37;100.00
71165;BME280;58859;55.132;-1.586;2023-11-19T11:01:01;99352.88;;;16.16;100.00
71165;BME280;58859;55.132;-1.586;2023-11-19T11:03:39;99349.72;;;16.87;100.00
71165;BME280;58859;55.132;-1.586;2023-11-19T11:06:08;99346.81;;;16.16;100.00
71165;BME280;58859;55.132;-1.586;2023-11-19T11:08:36;99352.09;;;16.52;100.00
71165;BME280;58859;55.132;-1.586;2023-11-19T11:11:03;99358.16;;;17.37;100.00
71165;BME280;58859;55.132;-1.586;2023-11-19T11:13:29;99345.84;;;16.53;100.00
71165;BME280;58859;55.132;-1.586;2023-11-19T11:15:57;99344.81;;;17.08;100.00
71165;BME280;58859;55.132;-1.586;2023-11-19T11:18:26;99349.06;;;16.91;100.00
71165;BME280;58859;55.132;-1.586;2023-11-19T11:20:56;99346.50;;;16.48;100.00
71165;BME280;58859;55.132;-1.586;2023-11-19T11:32:39;99339.28;;;16.44;100.00
71165;BME280;58859;55.132;-1.586;2023-11-19T11:37:46;99341.03;;;16.07;100.00
71165;BME280;58859;55.132;-1.586;2023-11-19T11:40:16;99345.22;;;15.90;100.00
71165;BME280;58859;55.132;-1.586;2023-11-19T11:42:44;99330.38;;;16.27;100.00
71165;BME280;58859;55.132;-1.586;2023-11-19T11:45:10;99352.69;;;17.38;100.00
71165;BME280;58859;55.132;-1.586;2023-11-19T11:50:17;99344.56;;;17.40;100.00
71165;BME280;58859;55.132;-1.586;2023-11-19T11:55:25;99339.06;;;17.00;100.00
71165;BME280;58859;55.132;-1.586;2023-11-19T11:57:51;99340.22;;;17.34;100.00
71165;BME280;58859;55.132;-1.586;2023-11-19T12:02:55;99343.00;;;16.91;100.00
71165;BME280;58859;55.132;-1.586;2023-11-19T12:05:21;99337.34;;;16.76;100.00
71165;BME280;58859;55.132;-1.586;2023-11-19T12:08:00;99335.50;;;16.76;100.00
71165;BME280;58859;55.132;-1.586;2023-11-19T12:10:29;99341.97;;;16.92;100.00
71165;BME280;58859;55.132;-1.586;2023-11-19T12:13:00;99341.91;;;16.98;100.00
71165;BME280;58859;55.132;-1.586;2023-11-19T12:15:26;99336.16;;;16.90;100.00
71165;BME280;58859;55.132;-1.586;2023-11-19T12:17:56;99332.53;;;16.73;100.00
71165;BME280;58859;55.132;-1.586;2023-11-19T12:20:23;99338.97;;;16.52;100.00
71165;BME280;58859;55.132;-1.586;2023-11-19T12:22:49;99331.22;;;17.53;100.00
71165;BME280;58859;55.132;-1.586;2023-11-19T12:25:16;99329.72;;;18.10;100.00
71165;BME280;58859;55.132;-1.586;2023-11-19T12:27:44;99337.81;;;17.62;100.00
71165;BME280;58859;55.132;-1.586;2023-11-19T12:30:10;99333.22;;;17.69;100.00
71165;BME280;58859;55.132;-1.586;2023-11-19T12:32:42;99340.13;;;17.82;100.00
71165;BME280;58859;55.132;-1.586;2023-11-19T12:35:09;99337.97;;;17.90;100.00
71165;BME280;58859;55.132;-1.586;2023-11-19T12:37:44;99336.13;;;17.79;100.00
71165;BME280;58859;55.132;-1.586;2023-11-19T12:40:30;99338.25;;;17.29;100.00
71165;BME280;58859;55.132;-1.586;2023-11-19T12:42:56;99329.38;;;18.29;100.00
71165;BME280;58859;55.132;-1.586;2023-11-19T12:45:22;99330.47;;;17.64;100.00
71165;BME280;58859;55.132;-1.586;2023-11-19T12:47:49;99328.09;;;17.74;100.00
71165;BME280;58859;55.132;-1.586;2023-11-19T12:50:17;99331.41;;;17.40;100.00
71165;BME280;58859;55.132;-1.586;2023-11-19T12:52:57;99326.63;;;17.90;100.00
71165;BME280;58859;55.132;-1.586;2023-11-19T12:55:29;99324.03;;;17.18;100.00
71165;BME280;58859;55.132;-1.586;2023-11-19T12:57:55;99333.75;;;17.18;100.00
71165;BME280;58859;55.132;-1.586;2023-11-19T13:00:22;99325.31;;;16.98;100.00